sensor_id;sensor_type;location;lat;lon;timestamp;P1;durP1;ratioP1;P2;durP2;ratioP2
67140;SDS011;54058;52.010;5.546;2023-01-10T00:01:26;8.82;;;1.80;;
67140;SDS011;54058;52.010;5.546;2023-01-10T00:03:52;8.65;;;1.98;;
67140;SDS011;54058;52.010;5.546;2023-01-10T00:06:17;10.07;;;1.73;;
67140;SDS011;54058;52.010;5.546;2023-01-10T00:08:43;15.80;;;1.85;;
67140;SDS011;54058;52.010;5.546;2023-01-10T00:11:09;13.35;;;2.00;;
67140;SDS011;54058;52.010;5.546;2023-01-10T00:13:53;9.45;;;1.98;;
67140;SDS011;54058;52.010;5.546;2023-01-10T00:16:20;16.95;;;2.20;;
67140;SDS011;54058;52.010;5.546;2023-01-10T00:18:46;17.63;;;3.30;;
67140;SDS011;54058;52.010;5.546;2023-01-10T00:21:12;12.38;;;1.60;;
67140;SDS011;54058;52.010;5.546;2023-01-10T00:23:38;17.05;;;2.92;;
67140;SDS011;54058;52.010;5.546;2023-01-10T00:26:04;7.63;;;1.90;;
67140;SDS011;54058;52.010;5.546;2023-01-10T00:28:30;10.98;;;1.52;;
67140;SDS011;54058;52.010;5.546;2023-01-10T00:30:58;14.32;;;2.10;;
67140;SDS011;54058;52.010;5.546;2023-01-10T00:33:35;14.13;;;2.40;;
67140;SDS011;54058;52.010;5.546;2023-01-10T00:36:04;13.75;;;2.20;;
67140;SDS011;54058;52.010;5.546;2023-01-10T00:38:32;9.35;;;2.03;;
67140;SDS011;54058;52.010;5.546;2023-01-10T00:43:24;8.10;;;1.55;;
67140;SDS011;54058;52.010;5.546;2023-01-10T00:46:08;12.32;;;2.28;;
67140;SDS011;54058;52.010;5.546;2023-01-10T00:48:34;6.60;;;1.65;;
67140;SDS011;54058;52.010;5.546;2023-01-10T00:51:00;7.03;;;1.75;;
67140;SDS011;54058;52.010;5.546;2023-01-10T00:53:26;19.30;;;2.70;;
67140;SDS011;54058;52.010;5.546;2023-01-10T00:55:52;9.02;;;1.80;;
67140;SDS011;54058;52.010;5.546;2023-01-10T00:58:19;8.77;;;1.40;;
67140;SDS011;54058;52.010;5.546;2023-01-10T01:00:45;12.88;;;1.67;;
67140;SDS011;54058;52.010;5.546;2023-01-10T01:03:11;11.82;;;2.05;;
67140;SDS011;54058;52.010;5.546;2023-01-10T01:05:41;11.23;;;2.03;;
67140;SDS011;54058;52.010;5.546;2023-01-10T01:08:08;7.63;;;2.08;;
67140;SDS011;54058;52.010;5.546;2023-01-10T01:10:34;6.43;;;1.60;;
67140;SDS011;54058;52.010;5.546;2023-01-10T01:13:07;15.13;;;2.42;;
67140;SDS011;54058;52.010;5.546;2023-01-10T01:15:38;11.32;;;2.47;;
67140;SDS011;54058;52.010;5.546;2023-01-10T01:18:04;12.02;;;1.90;;
67140;SDS011;54058;52.010;5.546;2023-01-10T01:20:31;11.52;;;2.30;;
67140;SDS011;54058;52.010;5.546;2023-01-10T01:22:57;10.07;;;1.70;;
67140;SDS011;54058;52.010;5.546;2023-01-10T01:25:23;12.32;;;1.60;;
67140;SDS011;54058;52.010;5.546;2023-01-10T01:27:48;8.00;;;1.55;;
67140;SDS011;54058;52.010;5.546;2023-01-10T01:30:14;11.38;;;1.70;;
67140;SDS011;54058;52.010;5.546;2023-01-10T01:32:40;6.25;;;1.38;;
67140;SDS011;54058;52.010;5.546;2023-01-10T01:35:07;15.98;;;2.00;;
67140;SDS011;54058;52.010;5.546;2023-01-10T01:37:33;11.73;;;1.70;;
67140;SDS011;54058;52.010;5.546;2023-01-10T01:39:59;11.30;;;1.88;;
67140;SDS011;54058;52.010;5.546;2023-01-10T01:42:25;7.05;;;1.70;;
67140;SDS011;54058;52.010;5.546;2023-01-10T01:47:45;7.15;;;1.40;;
67140;SDS011;54058;52.010;5.546;2023-01-10T01:50:23;12.43;;;2.20;;
67140;SDS011;54058;52.010;5.546;2023-01-10T01:52:56;16.40;;;2.00;;
67140;SDS011;54058;52.010;5.546;2023-01-10T01:55:24;8.88;;;1.63;;
67140;SDS011;54058;52.010;5.546;2023-01-10T01:57:52;7.70;;;1.60;;
67140;SDS011;54058;52.010;5.546;2023-01-10T02:00:22;15.35;;;1.90;;
67140;SDS011;54058;52.010;5.546;2023-01-10T02:02:52;9.80;;;1.90;;
67140;SDS011;54058;52.010;5.546;2023-01-10T02:05:21;8.10;;;1.38;;
67140;SDS011;54058;52.010;5.546;2023-01-10T02:07:49;13.38;;;2.33;;
67140;SDS011;54058;52.010;5.546;2023-01-10T02:10:26;11.70;;;2.08;;
67140;SDS011;54058;52.010;5.546;2023-01-10T02:13:03;13.65;;;2.30;;
67140;SDS011;54058;52.010;5.546;2023-01-10T02:15:30;7.25;;;1.40;;
67140;SDS011;54058;52.010;5.546;2023-01-10T02:17:57;5.67;;;1.20;;
67140;SDS011;54058;52.010;5.546;2023-01-10T02:20:24;10.30;;;1.67;;
67140;SDS011;54058;52.010;5.546;2023-01-10T02:33:40;13.50;;;2.58;;
67140;SDS011;54058;52.010;5.546;2023-01-10T02:39:23;14.93;;;2.17;;
67140;SDS011;54058;52.010;5.546;2023-01-10T02:42:03;10.60;;;2.05;;
67140;SDS011;54058;52.010;5.546;2023-01-10T02:47:22;9.90;;;1.63;;
67140;SDS011;54058;52.010;5.546;2023-01-10T02:49:49;12.35;;;2.00;;
67140;SDS011;54058;52.010;5.546;2023-01-10T02:52:22;12.27;;;2.95;;
67140;SDS011;54058;52.010;5.546;2023-01-10T02:54:52;11.20;;;1.92;;
67140;SDS011;54058;52.010;5.546;2023-01-10T03:00:02;12.60;;;1.70;;
67140;SDS011;54058;52.010;5.546;2023-01-10T03:05:31;9.60;;;1.45;;
67140;SDS011;54058;52.010;5.546;2023-01-10T03:08:16;11.40;;;1.83;;
67140;SDS011;54058;52.010;5.546;2023-01-10T03:11:05;13.35;;;1.95;;
67140;SDS011;54058;52.010;5.546;2023-01-10T03:13:51;8.57;;;1.80;;
67140;SDS011;54058;52.010;5.546;2023-01-10T03:16:23;8.70;;;2.05;;
67140;SDS011;54058;52.010;5.546;2023-01-10T03:18:56;11.80;;;1.77;;
67140;SDS011;54058;52.010;5.546;2023-01-10T03:21:25;10.48;;;2.00;;
67140;SDS011;54058;52.010;5.546;2023-01-10T03:23:53;12.93;;;2.30;;
67140;SDS011;54058;52.010;5.546;2023-01-10T03:26:28;10.05;;;1.67;;
67140;SDS011;54058;52.010;5.546;2023-01-10T03:29:01;9.35;;;1.20;;
67140;SDS011;54058;52.010;5.546;2023-01-10T03:31:36;7.10;;;1.95;;
67140;SDS011;54058;52.010;5.546;2023-01-10T03:34:07;7.70;;;1.88;;
67140;SDS011;54058;52.010;5.546;2023-01-10T03:36:39;7.82;;;1.70;;
67140;SDS011;54058;52.010;5.546;2023-01-10T03:39:17;9.75;;;2.08;;
67140;SDS011;54058;52.010;5.546;2023-01-10T03:41:49;17.90;;;2.22;;
67140;SDS011;54058;52.010;5.546;2023-01-10T03:45:01;11.40;;;1.98;;
67140;SDS011;54058;52.010;5.546;2023-01-10T03:47:29;12.55;;;1.63;;
67140;SDS011;54058;52.010;5.546;2023-01-10T03:50:16;14.25;;;1.90;;
67140;SDS011;54058;52.010;5.546;2023-01-10T03:52:45;12.95;;;1.95;;
67140;SDS011;54058;52.010;5.546;2023-01-10T03:55:11;12.85;;;1.98;;
67140;SDS011;54058;52.010;5.546;2023-01-10T03:57:42;13.23;;;1.90;;
67140;SDS011;54058;52.010;5.546;2023-01-10T04:00:09;8.35;;;2.58;;
67140;SDS011;54058;52.010;5.546;2023-01-10T04:02:36;14.88;;;2.08;;
67140;SDS011;54058;52.010;5.546;2023-01-10T04:05:02;6.85;;;1.40;;
67140;SDS011;54058;52.010;5.546;2023-01-10T04:07:28;15.10;;;2.05;;
67140;SDS011;54058;52.010;5.546;2023-01-10T04:09:54;10.15;;;2.08;;
67140;SDS011;54058;52.010;5.546;2023-01-10T04:12:19;15.27;;;2.45;;
67140;SDS011;54058;52.010;5.546;2023-01-10T04:14:45;14.82;;;2.10;;
67140;SDS011;54058;52.010;5.546;2023-01-10T04:17:11;10.88;;;1.58;;
67140;SDS011;54058;52.010;5.546;2023-01-10T04:19:38;15.13;;;2.30;;
67140;SDS011;54058;52.010;5.546;2023-01-10T04:22:04;15.82;;;2.00;;
67140;SDS011;54058;52.010;5.546;2023-01-10T04:24:30;20.15;;;3.30;;
67140;SDS011;54058;52.010;5.546;2023-01-10T04:26:56;11.38;;;1.77;;
67140;SDS011;54058;52.010;5.546;2023-01-10T04:29:21;11.07;;;2.30;;
67140;SDS011;54058;52.010;5.546;2023-01-10T04:31:47;10.27;;;1.88;;
67140;SDS011;54058;52.010;5.546;2023-01-10T04:34:14;11.50;;;1.95;;
67140;SDS011;54058;52.010;5.546;2023-01-10T04:36:39;11.10;;;2.22;;
67140;SDS011;54058;52.010;5.546;2023-01-10T04:39:05;13.70;;;1.98;;
67140;SDS011;54058;52.010;5.546;2023-01-10T04:41:31;13.85;;;1.80;;
67140;SDS011;54058;52.010;5.546;2023-01-10T04:43:56;17.65;;;2.63;;
67140;SDS011;54058;52.010;5.546;2023-01-10T04:46:22;12.82;;;2.42;;
67140;SDS011;54058;52.010;5.546;2023-01-10T04:48:48;15.25;;;1.80;;
67140;SDS011;54058;52.010;5.546;2023-01-10T04:51:14;14.73;;;2.35;;
67140;SDS011;54058;52.010;5.546;2023-01-10T04:53:39;17.55;;;2.28;;
67140;SDS011;54058;52.010;5.546;2023-01-10T04:56:06;13.10;;;2.03;;
67140;SDS011;54058;52.010;5.546;2023-01-10T05:00:59;17.17;;;2.10;;
67140;SDS011;54058;52.010;5.546;2023-01-10T05:03:30;14.90;;;2.03;;
67140;SDS011;54058;52.010;5.546;2023-01-10T05:05:57;14.30;;;2.30;;
67140;SDS011;54058;52.010;5.546;2023-01-10T05:08:22;8.85;;;2.47;;
67140;SDS011;54058;52.010;5.546;2023-01-10T05:10:48;16.33;;;2.60;;
67140;SDS011;54058;52.010;5.546;2023-01-10T05:13:13;17.65;;;2.20;;
67140;SDS011;54058;52.010;5.546;2023-01-10T05:15:39;10.82;;;2.17;;
67140;SDS011;54058;52.010;5.546;2023-01-10T05:18:05;14.25;;;2.10;;
67140;SDS011;54058;52.010;5.546;2023-01-10T05:20:30;11.20;;;2.10;;
67140;SDS011;54058;52.010;5.546;2023-01-10T05:22:56;13.88;;;1.85;;
67140;SDS011;54058;52.010;5.546;2023-01-10T05:25:21;14.25;;;2.30;;
67140;SDS011;54058;52.010;5.546;2023-01-10T05:27:47;14.18;;;2.30;;
67140;SDS011;54058;52.010;5.546;2023-01-10T05:30:13;10.23;;;2.25;;
67140;SDS011;54058;52.010;5.546;2023-01-10T05:32:39;15.68;;;2.60;;
67140;SDS011;54058;52.010;5.546;2023-01-10T05:35:05;19.85;;;2.63;;
67140;SDS011;54058;52.010;5.546;2023-01-10T05:37:31;11.80;;;2.67;;
67140;SDS011;54058;52.010;5.546;2023-01-10T05:39:56;14.10;;;2.50;;
67140;SDS011;54058;52.010;5.546;2023-01-10T05:42:22;7.32;;;2.03;;
67140;SDS011;54058;52.010;5.546;2023-01-10T05:44:48;14.10;;;2.50;;
67140;SDS011;54058;52.010;5.546;2023-01-10T05:47:16;14.80;;;2.60;;
67140;SDS011;54058;52.010;5.546;2023-01-10T05:49:42;16.15;;;2.80;;
67140;SDS011;54058;52.010;5.546;2023-01-10T05:52:07;17.58;;;2.58;;
67140;SDS011;54058;52.010;5.546;2023-01-10T05:54:33;15.73;;;2.38;;
67140;SDS011;54058;52.010;5.546;2023-01-10T05:56:58;14.45;;;2.42;;
67140;SDS011;54058;52.010;5.546;2023-01-10T05:59:24;13.05;;;2.13;;
67140;SDS011;54058;52.010;5.546;2023-01-10T06:01:50;16.15;;;2.60;;
67140;SDS011;54058;52.010;5.546;2023-01-10T06:04:15;13.57;;;2.45;;
67140;SDS011;54058;52.010;5.546;2023-01-10T06:06:41;16.33;;;3.05;;
67140;SDS011;54058;52.010;5.546;2023-01-10T06:09:06;12.15;;;2.45;;
67140;SDS011;54058;52.010;5.546;2023-01-10T06:11:32;18.67;;;2.70;;
67140;SDS011;54058;52.010;5.546;2023-01-10T06:14:00;14.13;;;2.20;;
67140;SDS011;54058;52.010;5.546;2023-01-10T06:16:26;19.77;;;3.00;;
67140;SDS011;54058;52.010;5.546;2023-01-10T06:18:52;17.25;;;2.38;;
67140;SDS011;54058;52.010;5.546;2023-01-10T06:21:18;13.70;;;2.40;;
67140;SDS011;54058;52.010;5.546;2023-01-10T06:23:43;16.60;;;2.78;;
67140;SDS011;54058;52.010;5.546;2023-01-10T06:26:09;24.73;;;3.10;;
67140;SDS011;54058;52.010;5.546;2023-01-10T06:28:35;18.73;;;2.40;;
67140;SDS011;54058;52.010;5.546;2023-01-10T06:31:01;19.63;;;3.20;;
67140;SDS011;54058;52.010;5.546;2023-01-10T06:33:26;13.15;;;2.50;;
67140;SDS011;54058;52.010;5.546;2023-01-10T06:35:52;17.35;;;2.95;;
67140;SDS011;54058;52.010;5.546;2023-01-10T06:38:17;30.35;;;3.22;;
67140;SDS011;54058;52.010;5.546;2023-01-10T06:40:43;15.38;;;2.47;;
67140;SDS011;54058;52.010;5.546;2023-01-10T06:43:09;16.80;;;3.00;;
67140;SDS011;54058;52.010;5.546;2023-01-10T06:45:34;16.15;;;2.97;;
67140;SDS011;54058;52.010;5.546;2023-01-10T06:48:00;18.20;;;3.08;;
67140;SDS011;54058;52.010;5.546;2023-01-10T06:50:26;14.05;;;2.90;;
67140;SDS011;54058;52.010;5.546;2023-01-10T06:52:56;17.17;;;2.60;;
67140;SDS011;54058;52.010;5.546;2023-01-10T06:55:23;18.30;;;2.65;;
67140;SDS011;54058;52.010;5.546;2023-01-10T06:57:53;18.52;;;3.13;;
67140;SDS011;54058;52.010;5.546;2023-01-10T07:02:53;20.65;;;2.97;;
67140;SDS011;54058;52.010;5.546;2023-01-10T07:05:21;15.10;;;2.88;;
67140;SDS011;54058;52.010;5.546;2023-01-10T07:07:47;21.73;;;3.08;;
67140;SDS011;54058;52.010;5.546;2023-01-10T07:10:13;17.23;;;2.75;;
67140;SDS011;54058;52.010;5.546;2023-01-10T07:12:38;22.75;;;3.47;;
67140;SDS011;54058;52.010;5.546;2023-01-10T07:15:04;17.98;;;3.33;;
67140;SDS011;54058;52.010;5.546;2023-01-10T07:17:30;18.73;;;3.72;;
67140;SDS011;54058;52.010;5.546;2023-01-10T07:19:55;20.65;;;3.40;;
67140;SDS011;54058;52.010;5.546;2023-01-10T07:22:21;23.33;;;3.30;;
67140;SDS011;54058;52.010;5.546;2023-01-10T07:24:47;23.60;;;3.05;;
67140;SDS011;54058;52.010;5.546;2023-01-10T07:27:12;22.50;;;3.42;;
67140;SDS011;54058;52.010;5.546;2023-01-10T07:29:38;15.55;;;3.00;;
67140;SDS011;54058;52.010;5.546;2023-01-10T07:32:04;23.73;;;3.67;;
67140;SDS011;54058;52.010;5.546;2023-01-10T07:34:30;16.90;;;3.08;;
67140;SDS011;54058;52.010;5.546;2023-01-10T07:36:55;18.85;;;3.13;;
67140;SDS011;54058;52.010;5.546;2023-01-10T07:39:21;27.20;;;3.70;;
67140;SDS011;54058;52.010;5.546;2023-01-10T07:41:47;22.45;;;3.00;;
67140;SDS011;54058;52.010;5.546;2023-01-10T07:44:13;21.92;;;3.53;;
67140;SDS011;54058;52.010;5.546;2023-01-10T07:46:39;18.08;;;3.13;;
67140;SDS011;54058;52.010;5.546;2023-01-10T07:49:04;25.40;;;3.90;;
67140;SDS011;54058;52.010;5.546;2023-01-10T07:51:30;21.73;;;2.75;;
67140;SDS011;54058;52.010;5.546;2023-01-10T07:53:56;22.55;;;3.42;;
67140;SDS011;54058;52.010;5.546;2023-01-10T07:56:22;21.05;;;3.95;;
67140;SDS011;54058;52.010;5.546;2023-01-10T07:58:48;31.83;;;3.67;;
67140;SDS011;54058;52.010;5.546;2023-01-10T08:01:16;14.45;;;2.50;;
67140;SDS011;54058;52.010;5.546;2023-01-10T08:03:42;14.07;;;2.47;;
67140;SDS011;54058;52.010;5.546;2023-01-10T08:06:08;17.38;;;3.30;;
67140;SDS011;54058;52.010;5.546;2023-01-10T08:08:35;15.65;;;2.80;;
67140;SDS011;54058;52.010;5.546;2023-01-10T08:11:01;26.63;;;3.90;;
67140;SDS011;54058;52.010;5.546;2023-01-10T08:13:27;20.67;;;3.38;;
67140;SDS011;54058;52.010;5.546;2023-01-10T08:15:54;19.65;;;3.83;;
67140;SDS011;54058;52.010;5.546;2023-01-10T08:18:20;23.98;;;3.03;;
67140;SDS011;54058;52.010;5.546;2023-01-10T08:20:47;26.02;;;3.67;;
67140;SDS011;54058;52.010;5.546;2023-01-10T08:23:14;16.80;;;3.05;;
67140;SDS011;54058;52.010;5.546;2023-01-10T08:25:39;21.70;;;3.20;;
67140;SDS011;54058;52.010;5.546;2023-01-10T08:28:05;18.77;;;3.10;;
67140;SDS011;54058;52.010;5.546;2023-01-10T08:30:31;19.98;;;3.53;;
67140;SDS011;54058;52.010;5.546;2023-01-10T08:32:57;22.38;;;3.72;;
67140;SDS011;54058;52.010;5.546;2023-01-10T08:35:22;16.58;;;3.50;;
67140;SDS011;54058;52.010;5.546;2023-01-10T08:37:48;20.10;;;3.40;;
67140;SDS011;54058;52.010;5.546;2023-01-10T08:40:13;18.27;;;3.35;;
67140;SDS011;54058;52.010;5.546;2023-01-10T08:42:39;19.40;;;4.15;;
67140;SDS011;54058;52.010;5.546;2023-01-10T08:45:05;20.50;;;3.80;;
67140;SDS011;54058;52.010;5.546;2023-01-10T08:47:31;17.55;;;3.65;;
67140;SDS011;54058;52.010;5.546;2023-01-10T08:49:57;12.77;;;3.17;;
67140;SDS011;54058;52.010;5.546;2023-01-10T08:52:22;23.45;;;3.10;;
67140;SDS011;54058;52.010;5.546;2023-01-10T08:54:48;19.65;;;3.75;;
67140;SDS011;54058;52.010;5.546;2023-01-10T08:57:14;24.90;;;3.20;;
67140;SDS011;54058;52.010;5.546;2023-01-10T08:59:40;15.95;;;2.78;;
67140;SDS011;54058;52.010;5.546;2023-01-10T09:02:05;13.48;;;2.80;;
67140;SDS011;54058;52.010;5.546;2023-01-10T09:04:37;21.02;;;4.05;;
67140;SDS011;54058;52.010;5.546;2023-01-10T09:07:02;24.50;;;3.63;;
67140;SDS011;54058;52.010;5.546;2023-01-10T09:09:28;23.95;;;3.53;;
67140;SDS011;54058;52.010;5.546;2023-01-10T09:11:53;24.30;;;3.75;;
67140;SDS011;54058;52.010;5.546;2023-01-10T09:14:19;19.23;;;2.95;;
67140;SDS011;54058;52.010;5.546;2023-01-10T09:16:45;17.45;;;3.05;;
67140;SDS011;54058;52.010;5.546;2023-01-10T09:19:10;20.02;;;3.03;;
67140;SDS011;54058;52.010;5.546;2023-01-10T09:21:36;28.83;;;3.70;;
67140;SDS011;54058;52.010;5.546;2023-01-10T09:24:02;19.83;;;3.22;;
67140;SDS011;54058;52.010;5.546;2023-01-10T09:26:27;16.67;;;3.08;;
67140;SDS011;54058;52.010;5.546;2023-01-10T09:28:53;22.20;;;3.88;;
67140;SDS011;54058;52.010;5.546;2023-01-10T09:31:18;15.10;;;3.85;;
67140;SDS011;54058;52.010;5.546;2023-01-10T09:33:44;18.70;;;3.08;;
67140;SDS011;54058;52.010;5.546;2023-01-10T09:36:11;23.42;;;3.85;;
67140;SDS011;54058;52.010;5.546;2023-01-10T09:38:37;24.92;;;3.97;;
67140;SDS011;54058;52.010;5.546;2023-01-10T09:41:07;18.92;;;3.45;;
67140;SDS011;54058;52.010;5.546;2023-01-10T09:49:38;21.58;;;4.10;;
67140;SDS011;54058;52.010;5.546;2023-01-10T09:52:21;22.05;;;3.72;;
67140;SDS011;54058;52.010;5.546;2023-01-10T09:54:51;21.83;;;3.55;;
67140;SDS011;54058;52.010;5.546;2023-01-10T09:57:20;20.48;;;4.15;;
67140;SDS011;54058;52.010;5.546;2023-01-10T09:59:47;21.77;;;3.75;;
67140;SDS011;54058;52.010;5.546;2023-01-10T10:05:32;17.23;;;3.80;;
67140;SDS011;54058;52.010;5.546;2023-01-10T10:07:45;15.90;;;2.92;;
67140;SDS011;54058;52.010;5.546;2023-01-10T10:10:16;20.08;;;3.40;;
67140;SDS011;54058;52.010;5.546;2023-01-10T10:12:59;23.45;;;3.33;;
67140;SDS011;54058;52.010;5.546;2023-01-10T10:33:02;17.10;;;3.00;;
67140;SDS011;54058;52.010;5.546;2023-01-10T10:35:38;18.75;;;3.97;;
67140;SDS011;54058;52.010;5.546;2023-01-10T10:38:21;15.05;;;3.35;;
67140;SDS011;54058;52.010;5.546;2023-01-10T10:40:56;15.70;;;2.42;;
67140;SDS011;54058;52.010;5.546;2023-01-10T10:43:24;15.45;;;3.58;;
67140;SDS011;54058;52.010;5.546;2023-01-10T10:45:56;17.90;;;3.10;;
67140;SDS011;54058;52.010;5.546;2023-01-10T10:48:30;19.98;;;2.90;;
67140;SDS011;54058;52.010;5.546;2023-01-10T10:53:42;25.88;;;3.13;;
67140;SDS011;54058;52.010;5.546;2023-01-10T10:58:37;15.77;;;2.47;;
67140;SDS011;54058;52.010;5.546;2023-01-10T11:01:09;23.40;;;3.13;;
67140;SDS011;54058;52.010;5.546;2023-01-10T11:03:39;12.60;;;2.78;;
67140;SDS011;54058;52.010;5.546;2023-01-10T11:06:18;17.73;;;2.80;;
67140;SDS011;54058;52.010;5.546;2023-01-10T11:08:45;17.17;;;3.13;;
67140;SDS011;54058;52.010;5.546;2023-01-10T11:13:52;18.08;;;2.75;;
67140;SDS011;54058;52.010;5.546;2023-01-10T11:16:24;16.40;;;3.25;;
67140;SDS011;54058;52.010;5.546;2023-01-10T11:21:51;13.93;;;3.10;;
67140;SDS011;54058;52.010;5.546;2023-01-10T11:24:22;18.40;;;3.03;;
67140;SDS011;54058;52.010;5.546;2023-01-10T11:27:00;12.32;;;2.58;;
67140;SDS011;54058;52.010;5.546;2023-01-10T11:32:18;15.88;;;2.50;;
67140;SDS011;54058;52.010;5.546;2023-01-10T11:34:54;17.42;;;2.30;;
67140;SDS011;54058;52.010;5.546;2023-01-10T11:37:27;13.73;;;3.03;;
67140;SDS011;54058;52.010;5.546;2023-01-10T11:42:40;23.60;;;3.53;;
67140;SDS011;54058;52.010;5.546;2023-01-10T11:47:51;15.38;;;2.97;;
67140;SDS011;54058;52.010;5.546;2023-01-10T11:50:24;14.82;;;2.92;;
67140;SDS011;54058;52.010;5.546;2023-01-10T11:52:55;17.55;;;3.28;;
67140;SDS011;54058;52.010;5.546;2023-01-10T11:55:22;16.15;;;2.58;;
67140;SDS011;54058;52.010;5.546;2023-01-10T11:57:57;13.75;;;2.25;;
67140;SDS011;54058;52.010;5.546;2023-01-10T12:00:30;19.50;;;2.97;;
67140;SDS011;54058;52.010;5.546;2023-01-10T12:03:02;13.27;;;2.75;;
67140;SDS011;54058;52.010;5.546;2023-01-10T12:06:01;19.75;;;3.08;;
67140;SDS011;54058;52.010;5.546;2023-01-10T12:08:37;20.83;;;2.72;;
67140;SDS011;54058;52.010;5.546;2023-01-10T12:13:48;13.18;;;2.45;;
67140;SDS011;54058;52.010;5.546;2023-01-10T12:18:51;11.32;;;2.45;;
67140;SDS011;54058;52.010;5.546;2023-01-10T12:21:25;13.65;;;2.40;;
67140;SDS011;54058;52.010;5.546;2023-01-10T12:24:01;19.80;;;2.88;;
67140;SDS011;54058;52.010;5.546;2023-01-10T12:26:31;18.27;;;2.70;;
67140;SDS011;54058;52.010;5.546;2023-01-10T12:29:00;13.23;;;2.22;;
67140;SDS011;54058;52.010;5.546;2023-01-10T12:31:33;13.43;;;2.28;;
67140;SDS011;54058;52.010;5.546;2023-01-10T12:34:03;11.82;;;2.70;;
67140;SDS011;54058;52.010;5.546;2023-01-10T12:39:20;19.33;;;2.72;;
67140;SDS011;54058;52.010;5.546;2023-01-10T12:44:53;19.95;;;3.03;;
67140;SDS011;54058;52.010;5.546;2023-01-10T12:50:44;15.60;;;2.40;;
67140;SDS011;54058;52.010;5.546;2023-01-10T12:56:03;16.23;;;2.55;;
67140;SDS011;54058;52.010;5.546;2023-01-10T12:58:51;14.82;;;2.25;;
67140;SDS011;54058;52.010;5.546;2023-01-10T13:01:23;13.63;;;2.50;;
67140;SDS011;54058;52.010;5.546;2023-01-10T13:03:56;14.75;;;2.75;;
67140;SDS011;54058;52.010;5.546;2023-01-10T13:06:36;24.00;;;2.92;;
67140;SDS011;54058;52.010;5.546;2023-01-10T13:09:06;17.20;;;2.63;;
67140;SDS011;54058;52.010;5.546;2023-01-10T13:11:39;15.13;;;2.85;;
67140;SDS011;54058;52.010;5.546;2023-01-10T13:14:11;12.25;;;2.30;;
67140;SDS011;54058;52.010;5.546;2023-01-10T13:16:42;15.93;;;2.53;;
67140;SDS011;54058;52.010;5.546;2023-01-10T13:21:43;15.95;;;2.65;;
67140;SDS011;54058;52.010;5.546;2023-01-10T13:24:19;18.27;;;2.40;;
67140;SDS011;54058;52.010;5.546;2023-01-10T13:26:54;14.93;;;2.88;;
67140;SDS011;54058;52.010;5.546;2023-01-10T13:29:22;15.30;;;2.78;;
67140;SDS011;54058;52.010;5.546;2023-01-10T13:31:52;14.65;;;2.75;;
67140;SDS011;54058;52.010;5.546;2023-01-10T13:34:22;21.23;;;3.63;;
67140;SDS011;54058;52.010;5.546;2023-01-10T13:36:57;18.25;;;3.30;;
67140;SDS011;54058;52.010;5.546;2023-01-10T13:39:26;14.18;;;2.40;;
67140;SDS011;54058;52.010;5.546;2023-01-10T13:52:47;11.52;;;2.35;;
67140;SDS011;54058;52.010;5.546;2023-01-10T13:55:26;14.45;;;2.65;;
67140;SDS011;54058;52.010;5.546;2023-01-10T13:57:59;14.98;;;2.60;;
67140;SDS011;54058;52.010;5.546;2023-01-10T14:08:57;24.70;;;3.33;;
67140;SDS011;54058;52.010;5.546;2023-01-10T14:11:29;10.45;;;2.22;;
67140;SDS011;54058;52.010;5.546;2023-01-10T14:14:18;12.40;;;2.55;;
67140;SDS011;54058;52.010;5.546;2023-01-10T14:16:53;15.18;;;2.72;;
67140;SDS011;54058;52.010;5.546;2023-01-10T14:19:25;12.05;;;2.25;;
67140;SDS011;54058;52.010;5.546;2023-01-10T14:21:57;22.30;;;2.65;;
67140;SDS011;54058;52.010;5.546;2023-01-10T14:24:36;11.13;;;2.33;;
67140;SDS011;54058;52.010;5.546;2023-01-10T14:27:11;17.85;;;2.78;;
67140;SDS011;54058;52.010;5.546;2023-01-10T14:29:39;24.25;;;3.55;;
67140;SDS011;54058;52.010;5.546;2023-01-10T14:32:30;21.20;;;3.33;;
67140;SDS011;54058;52.010;5.546;2023-01-10T14:35:00;24.23;;;3.60;;
67140;SDS011;54058;52.010;5.546;2023-01-10T14:37:30;21.08;;;2.60;;
67140;SDS011;54058;52.010;5.546;2023-01-10T14:42:56;25.52;;;2.83;;
67140;SDS011;54058;52.010;5.546;2023-01-10T14:48:21;15.80;;;2.50;;
67140;SDS011;54058;52.010;5.546;2023-01-10T14:53:38;19.58;;;2.80;;
67140;SDS011;54058;52.010;5.546;2023-01-10T14:56:27;18.88;;;2.95;;
67140;SDS011;54058;52.010;5.546;2023-01-10T14:59:23;16.77;;;3.17;;
67140;SDS011;54058;52.010;5.546;2023-01-10T15:01:50;15.55;;;2.78;;
67140;SDS011;54058;52.010;5.546;2023-01-10T15:04:18;12.63;;;2.40;;
67140;SDS011;54058;52.010;5.546;2023-01-10T15:06:49;17.70;;;2.72;;
67140;SDS011;54058;52.010;5.546;2023-01-10T15:09:20;17.80;;;3.15;;
67140;SDS011;54058;52.010;5.546;2023-01-10T15:11:46;19.10;;;2.80;;
67140;SDS011;54058;52.010;5.546;2023-01-10T15:14:15;11.93;;;2.60;;
67140;SDS011;54058;52.010;5.546;2023-01-10T15:16:44;13.65;;;3.03;;
67140;SDS011;54058;52.010;5.546;2023-01-10T15:19:12;21.17;;;3.25;;
67140;SDS011;54058;52.010;5.546;2023-01-10T15:21:43;14.85;;;2.90;;
67140;SDS011;54058;52.010;5.546;2023-01-10T15:27:03;15.52;;;2.65;;
67140;SDS011;54058;52.010;5.546;2023-01-10T15:29:38;9.98;;;2.47;;
67140;SDS011;54058;52.010;5.546;2023-01-10T15:32:12;17.25;;;2.28;;
67140;SDS011;54058;52.010;5.546;2023-01-10T15:34:48;15.98;;;2.58;;
67140;SDS011;54058;52.010;5.546;2023-01-10T15:37:23;15.70;;;2.22;;
67140;SDS011;54058;52.010;5.546;2023-01-10T15:39:52;9.52;;;2.75;;
67140;SDS011;54058;52.010;5.546;2023-01-10T15:42:19;13.43;;;2.40;;
67140;SDS011;54058;52.010;5.546;2023-01-10T15:44:47;13.88;;;2.53;;
67140;SDS011;54058;52.010;5.546;2023-01-10T15:49:58;14.88;;;3.42;;
67140;SDS011;54058;52.010;5.546;2023-01-10T15:52:24;9.02;;;1.90;;
67140;SDS011;54058;52.010;5.546;2023-01-10T15:54:50;14.77;;;2.40;;
67140;SDS011;54058;52.010;5.546;2023-01-10T15:57:25;16.83;;;3.50;;
67140;SDS011;54058;52.010;5.546;2023-01-10T15:59:54;10.48;;;1.48;;
67140;SDS011;54058;52.010;5.546;2023-01-10T16:02:24;12.32;;;2.38;;
67140;SDS011;54058;52.010;5.546;2023-01-10T16:04:55;7.03;;;1.50;;
67140;SDS011;54058;52.010;5.546;2023-01-10T16:07:30;12.65;;;1.85;;
67140;SDS011;54058;52.010;5.546;2023-01-10T16:10:05;14.13;;;2.17;;
67140;SDS011;54058;52.010;5.546;2023-01-10T16:12:52;10.73;;;2.25;;
67140;SDS011;54058;52.010;5.546;2023-01-10T16:15:50;15.70;;;2.85;;
67140;SDS011;54058;52.010;5.546;2023-01-10T16:18:17;8.88;;;2.00;;
67140;SDS011;54058;52.010;5.546;2023-01-10T16:20:42;8.98;;;1.85;;
67140;SDS011;54058;52.010;5.546;2023-01-10T16:23:14;9.63;;;2.28;;
67140;SDS011;54058;52.010;5.546;2023-01-10T16:25:45;12.88;;;2.00;;
67140;SDS011;54058;52.010;5.546;2023-01-10T16:28:19;12.18;;;2.08;;
67140;SDS011;54058;52.010;5.546;2023-01-10T16:30:45;8.13;;;1.73;;
67140;SDS011;54058;52.010;5.546;2023-01-10T16:33:12;7.72;;;1.92;;
67140;SDS011;54058;52.010;5.546;2023-01-10T16:35:40;6.18;;;1.60;;
67140;SDS011;54058;52.010;5.546;2023-01-10T16:38:07;7.35;;;2.13;;
67140;SDS011;54058;52.010;5.546;2023-01-10T16:40:41;9.85;;;1.90;;
67140;SDS011;54058;52.010;5.546;2023-01-10T16:43:10;10.60;;;2.10;;
67140;SDS011;54058;52.010;5.546;2023-01-10T16:45:49;5.95;;;1.20;;
67140;SDS011;54058;52.010;5.546;2023-01-10T16:48:16;7.93;;;1.75;;
67140;SDS011;54058;52.010;5.546;2023-01-10T16:50:43;3.90;;;1.40;;
67140;SDS011;54058;52.010;5.546;2023-01-10T16:58:13;6.60;;;1.70;;
67140;SDS011;54058;52.010;5.546;2023-01-10T17:00:40;4.18;;;1.40;;
67140;SDS011;54058;52.010;5.546;2023-01-10T17:03:10;5.68;;;1.58;;
67140;SDS011;54058;52.010;5.546;2023-01-10T17:05:42;5.95;;;1.63;;